Time;durP1;ratioP1;P1;durP2;ratioP2;P2;SDS_P1;SDS_P2;PMS_P1;PMS_P2;Temp;Humidity;BMP_temperature;BMP_pressure;BME280_temperature;BME280_humidity;BME280_pressure;Samples;Min_cycle;Max_cycle;Signal;HPM_P1;HPM_P2
2022/06/24 00:02:21;;;;;;;6.72;3.67;;;;;;;15.64;95.23;99945.38;5094290;28;20135;-73
2022/06/24 00:04:53;;;;;;;8.70;3.60;;;;;;;15.63;96.16;99946.34;5094164;28;20048;-73
2022/06/24 00:07:21;;;;;;;8.88;3.40;;;;;;;15.68;95.63;99942.41;5094745;28;20055;-73
2022/06/24 00:09:49;;;;;;;6.82;3.50;;;;;;;15.63;96.65;99949.09;5094212;28;20479;-73
2022/06/24 00:12:20;;;;;;;8.63;3.28;;;;;;;15.60;96.53;99949.31;5093750;28;20042;-73
2022/06/24 00:14:57;;;;;;;7.25;3.60;;;;;;;15.60;97.08;99949.31;5094271;28;20054;-73
2022/06/24 00:17:28;;;;;;;8.88;3.55;;;;;;;15.59;96.24;99946.72;5094490;28;20044;-73
2022/06/24 00:19:58;;;;;;;8.05;3.95;;;;;;;15.45;95.82;99945.03;5094722;28;20050;-73
2022/06/24 00:22:28;;;;;;;9.15;4.10;;;;;;;15.46;95.03;99946.78;5093783;28;20490;-73
2022/06/24 00:25:10;;;;;;;9.30;4.05;;;;;;;15.31;95.76;99946.97;5092678;28;20487;-73
2022/06/24 00:27:39;;;;;;;8.10;3.83;;;;;;;15.28;95.70;99947.16;5093904;28;20587;-73
2022/06/24 00:30:12;;;;;;;8.63;4.03;;;;;;;15.30;95.81;99941.63;5093404;28;20122;-73
2022/06/24 00:32:40;;;;;;;9.38;4.30;;;;;;;15.26;95.87;99940.97;5093830;28;20127;-73
2022/06/24 00:35:10;;;;;;;9.20;3.90;;;;;;;15.23;95.72;99954.78;5093868;28;20127;-73
2022/06/24 00:37:39;;;;;;;9.20;4.22;;;;;;;15.24;95.64;99936.63;5095241;28;20050;-73
2022/06/24 00:40:25;;;;;;;9.75;4.20;;;;;;;15.19;96.00;99935.13;5093436;28;20127;-73
2022/06/24 00:42:54;;;;;;;8.45;4.10;;;;;;;15.18;95.92;99937.94;5093637;28;20108;-73
2022/06/24 00:45:29;;;;;;;9.35;4.50;;;;;;;15.18;96.24;99935.22;5093585;28;20044;-73
2022/06/24 00:47:58;;;;;;;11.70;4.70;;;;;;;15.17;95.78;99930.78;5093431;28;20039;-73
2022/06/24 00:50:27;;;;;;;9.00;4.20;;;;;;;15.03;95.89;99940.84;5093713;28;20063;-73
2022/06/24 00:53:01;;;;;;;9.50;4.15;;;;;;;15.06;96.29;99946.03;5093579;28;20044;-73
2022/06/24 00:55:31;;;;;;;9.17;4.60;;;;;;;14.97;96.74;99941.28;5079155;28;20406;-73
2022/06/24 00:58:01;;;;;;;11.73;4.70;;;;;;;15.08;96.60;99948.63;5072718;28;20128;-73
2022/06/24 01:00:30;;;;;;;9.80;4.35;;;;;;;15.04;96.93;99941.69;5074436;28;20127;-73
2022/06/24 01:02:59;;;;;;;10.55;4.78;;;;;;;14.91;98.07;99949.91;5072884;28;20056;-73
2022/06/24 01:05:27;;;;;;;9.80;4.55;;;;;;;14.87;98.09;99945.63;5073213;28;20052;-73
2022/06/24 01:07:55;;;;;;;11.75;4.63;;;;;;;14.81;98.21;99946.97;5072993;28;20037;-73
2022/06/24 01:10:23;;;;;;;11.80;4.57;;;;;;;14.72;98.70;99947.66;5073086;28;20487;-73
2022/06/24 01:12:50;;;;;;;9.82;4.38;;;;;;;14.63;98.08;99935.53;5072795;28;20414;-73
2022/06/24 01:15:19;;;;;;;8.73;4.00;;;;;;;14.44;99.48;99942.28;5073010;28;20128;-73
2022/06/24 01:17:47;;;;;;;9.65;4.00;;;;;;;14.45;99.37;99944.00;5072938;28;20048;-73
2022/06/24 01:20:15;;;;;;;8.15;3.88;;;;;;;14.59;98.57;99939.47;5073065;28;20055;-73
2022/06/24 01:22:44;;;;;;;12.65;3.58;;;;;;;14.60;98.11;99939.34;5073079;28;20068;-73
2022/06/24 01:25:12;;;;;;;10.27;3.65;;;;;;;14.47;98.82;99943.94;5073018;28;20052;-73
2022/06/24 01:27:40;;;;;;;12.65;3.95;;;;;;;14.39;99.39;99943.59;5072533;28;20047;-73
2022/06/24 01:30:10;;;;;;;10.23;4.15;;;;;;;14.33;99.84;99936.75;5072917;28;20040;-73
2022/06/24 01:32:37;;;;;;;10.70;4.40;;;;;;;14.39;99.48;99941.75;5072943;28;20052;-73
2022/06/24 01:35:06;;;;;;;7.90;4.13;;;;;;;14.41;99.49;99947.94;5072964;28;20490;-73
2022/06/24 01:37:34;;;;;;;9.20;4.13;;;;;;;14.58;99.16;99948.59;5072700;28;20044;-73
2022/06/24 01:40:04;;;;;;;9.07;4.10;;;;;;;14.62;99.17;99942.81;5072606;28;20048;-73
2022/06/24 01:42:31;;;;;;;9.68;4.13;;;;;;;14.63;99.57;99938.25;5072289;28;20044;-73
2022/06/24 01:44:59;;;;;;;8.70;4.20;;;;;;;14.58;100.00;99941.31;5072790;28;20041;-73
2022/06/24 01:47:27;;;;;;;9.50;4.60;;;;;;;14.56;99.94;99942.41;5072691;28;20045;-73
2022/06/24 01:49:54;;;;;;;12.98;4.43;;;;;;;14.50;99.46;99949.13;5072844;28;20066;-73
2022/06/24 01:52:22;;;;;;;9.10;4.32;;;;;;;14.42;99.64;99946.97;5072948;28;20045;-73
2022/06/24 01:54:50;;;;;;;8.55;4.32;;;;;;;14.49;99.40;99947.41;5072261;28;20047;-73
2022/06/24 01:57:19;;;;;;;10.75;4.78;;;;;;;14.55;99.12;99943.38;5073528;28;20461;-73
2022/06/24 01:59:47;;;;;;;9.38;4.30;;;;;;;14.51;99.13;99945.44;5072447;28;20051;-73
2022/06/24 02:02:14;;;;;;;7.65;4.10;;;;;;;14.51;98.85;99945.44;5088438;28;20502;-73
2022/06/24 02:04:42;;;;;;;9.18;4.57;;;;;;;14.47;99.18;99947.50;5092273;28;20048;-73
2022/06/24 02:07:10;;;;;;;9.98;4.20;;;;;;;14.43;99.28;99945.97;5092904;28;20055;-73
2022/06/24 02:13:26;;;;;;;10.73;4.05;;;;;;;14.45;99.46;99940.44;5095937;28;20055;-73
2022/06/24 02:15:12;;;;;;;9.68;4.32;;;;;;;14.44;99.50;99938.72;5097601;28;20058;-73
2022/06/24 02:17:39;;;;;;;9.02;4.13;;;;;;;14.43;99.23;99934.25;5095989;28;20406;-73
2022/06/24 02:20:08;;;;;;;9.57;4.43;;;;;;;14.37;99.19;99943.69;5096149;28;20150;-73
2022/06/24 02:22:35;;;;;;;8.98;4.32;;;;;;;14.35;99.42;99945.66;5095978;28;20042;-73
2022/06/24 02:25:03;;;;;;;11.38;4.43;;;;;;;14.40;99.25;99943.47;5095756;28;20491;-73
2022/06/24 02:27:32;;;;;;;9.27;4.30;;;;;;;14.41;99.54;99947.94;5096110;28;20040;-73
2022/06/24 02:30:00;;;;;;;10.77;4.18;;;;;;;14.41;99.73;99947.94;5095913;28;20044;-73
2022/06/24 02:32:27;;;;;;;9.55;4.80;;;;;;;14.40;100.00;99948.91;5096063;28;20048;-73
2022/06/24 02:34:55;;;;;;;11.10;4.80;;;;;;;14.33;100.00;99947.63;5095265;28;20121;-73
2022/06/24 02:37:23;;;;;;;10.07;5.32;;;;;;;14.33;100.00;99953.94;5095807;28;20048;-73
2022/06/24 02:39:50;;;;;;;9.55;4.60;;;;;;;14.42;100.00;99957.81;5095425;28;20054;-73
2022/06/24 02:42:18;;;;;;;10.57;5.03;;;;;;;14.33;100.00;99947.63;5096044;28;20442;-73
2022/06/24 02:44:47;;;;;;;10.40;4.60;;;;;;;14.35;100.00;99956.53;5095797;28;20040;-73
2022/06/24 02:47:15;;;;;;;10.38;5.13;;;;;;;14.26;100.00;99962.59;5095660;28;20044;-73
2022/06/24 02:49:42;;;;;;;10.32;4.85;;;;;;;14.17;100.00;99958.69;5095741;28;20139;-73
2022/06/24 02:52:10;;;;;;;15.07;6.80;;;;;;;14.13;100.00;99968.03;5095718;28;20047;-73
2022/06/24 02:54:38;;;;;;;13.88;7.00;;;;;;;14.02;100.00;99966.03;5095195;28;20046;-73
2022/06/24 02:57:06;;;;;;;8.88;4.18;;;;;;;13.97;100.00;99966.38;5095651;28;20093;-73
2022/06/24 02:59:34;;;;;;;9.20;4.13;;;;;;;14.01;100.00;99980.59;5095594;28;20050;-73
2022/06/24 03:02:03;;;;;;;10.15;4.72;;;;;;;14.00;100.00;99978.84;5095371;28;20502;-73
2022/06/24 03:04:30;;;;;;;9.32;5.00;;;;;;;13.97;100.00;99976.34;5096489;28;20123;-73
2022/06/24 03:06:58;;;;;;;11.98;4.63;;;;;;;14.03;100.00;99975.94;5095247;28;20483;-73
2022/06/24 03:09:26;;;;;;;9.93;5.13;;;;;;;14.04;100.00;99980.38;5095044;28;20516;-73
2022/06/24 03:11:53;;;;;;;10.13;4.80;;;;;;;13.96;100.00;99978.22;5095310;28;20101;-73
2022/06/24 03:14:21;;;;;;;12.90;5.07;;;;;;;13.90;100.00;99978.63;5095298;28;20050;-73
2022/06/24 03:16:48;;;;;;;10.63;4.78;;;;;;;14.03;100.00;99979.53;5095179;28;20089;-73
2022/06/24 03:19:17;;;;;;;10.85;4.82;;;;;;;13.97;100.00;99979.06;5094557;28;20119;-73
2022/06/24 03:21:45;;;;;;;12.38;5.70;;;;;;;13.97;100.00;99981.78;5094715;28;20048;-73
2022/06/24 03:24:13;;;;;;;10.15;4.75;;;;;;;13.95;100.00;99990.06;5094760;28;20412;-73
2022/06/24 03:26:40;;;;;;;13.65;5.40;;;;;;;13.98;100.00;99983.53;5095000;28;20062;-73
2022/06/24 03:29:08;;;;;;;10.88;5.45;;;;;;;14.04;100.00;99988.53;5094825;28;20414;-73
2022/06/24 03:31:36;;;;;;;10.05;4.90;;;;;;;14.12;100.00;99996.16;5095005;28;20397;-73
2022/06/24 03:34:03;;;;;;;13.13;4.93;;;;;;;14.14;100.00;99996.91;5094848;28;20052;-73
2022/06/24 03:36:33;;;;;;;11.65;5.18;;;;;;;14.19;100.00;99995.63;5094412;28;20051;-73
2022/06/24 03:39:00;;;;;;;13.00;5.32;;;;;;;14.24;100.00;99994.44;5093834;28;20046;-73
2022/06/24 03:41:28;;;;;;;11.77;5.10;;;;;;;14.26;100.00;99990.63;5094681;28;20123;-73
2022/06/24 03:43:55;;;;;;;9.63;4.82;;;;;;;14.26;100.00;99998.78;5094706;28;20039;-73
2022/06/24 03:46:23;;;;;;;13.88;6.43;;;;;;;14.33;100.00;99996.50;5096464;28;20472;-73
2022/06/24 03:48:50;;;;;;;18.40;8.27;;;;;;;14.44;100.00;99996.63;5094548;28;20135;-73
2022/06/24 03:51:18;;;;;;;22.70;11.90;;;;;;;14.52;100.00;100001.53;5094248;28;20044;-73
2022/06/24 03:53:47;;;;;;;19.80;11.55;;;;;;;14.62;100.00;100002.63;5094346;28;20139;-73
2022/06/24 03:56:15;;;;;;;22.88;11.32;;;;;;;14.71;100.00;100009.28;5074183;28;20048;-73
2022/06/24 03:58:42;;;;;;;18.98;9.88;;;;;;;14.82;100.00;100003.09;5074071;28;20041;-73
2022/06/24 04:01:10;;;;;;;15.13;8.40;;;;;;;14.96;100.00;100004.81;5086692;28;20048;-73
2022/06/24 04:03:38;;;;;;;15.30;8.30;;;;;;;15.00;100.00;100000.91;5092744;28;20157;-73
2022/06/24 04:06:06;;;;;;;14.80;8.32;;;;;;;15.15;100.00;100012.50;5093869;28;20052;-73
2022/06/24 04:08:34;;;;;;;19.17;11.85;;;;;;;15.21;100.00;100005.75;5094035;28;20135;-73
2022/06/24 04:11:11;;;;;;;20.10;11.88;;;;;;;15.21;100.00;100008.47;5094107;28;20493;-73
2022/06/24 04:13:38;;;;;;;18.05;11.48;;;;;;;15.40;100.00;100018.00;5094180;28;20043;-73
2022/06/24 04:16:06;;;;;;;16.00;9.27;;;;;;;15.49;100.00;100007.28;5094045;28;20051;-74
2022/06/24 04:18:34;;;;;;;13.57;7.30;;;;;;;15.49;100.00;100010.00;5093846;28;20124;-73
2022/06/24 04:21:02;;;;;;;11.45;6.38;;;;;;;15.62;100.00;100017.28;5092713;28;20044;-72
2022/06/24 04:23:30;;;;;;;13.70;6.00;;;;;;;15.84;97.20;100012.91;5090130;28;20040;-72
2022/06/24 04:25:57;;;;;;;10.88;5.45;;;;;;;16.18;95.04;100005.81;5090382;28;20123;-73
2022/06/24 04:28:26;;;;;;;10.95;5.25;;;;;;;16.27;93.91;100006.94;5090074;28;20147;-74
2022/06/24 04:30:54;;;;;;;10.95;5.55;;;;;;;16.34;93.64;100008.22;5089404;28;20127;-73
2022/06/24 04:33:21;;;;;;;12.07;5.28;;;;;;;16.51;93.34;100012.31;5090223;28;20151;-73
2022/06/24 04:35:49;;;;;;;12.57;5.78;;;;;;;16.59;93.75;100016.31;5089890;28;20054;-73
2022/06/24 04:38:17;;;;;;;13.18;5.25;;;;;;;16.70;92.71;100013.59;5089403;28;20127;-74
2022/06/24 04:40:45;;;;;;;10.98;5.40;;;;;;;16.87;91.88;100012.25;5089914;28;20569;-73
2022/06/24 04:43:13;;;;;;;11.05;5.35;;;;;;;17.10;90.54;100012.25;5089982;28;20063;-73
2022/06/24 04:45:42;;;;;;;10.32;5.30;;;;;;;16.92;91.88;100009.13;5090292;28;20048;-73
2022/06/24 04:48:09;;;;;;;12.23;5.25;;;;;;;16.98;92.47;100016.88;5089703;28;20079;-73
2022/06/24 04:50:37;;;;;;;12.13;4.95;;;;;;;17.19;91.32;100011.53;5089218;28;20044;-76
2022/06/24 04:53:05;;;;;;;10.10;5.18;;;;;;;17.31;89.79;100012.38;5089821;28;20056;-74
2022/06/24 04:55:32;;;;;;;10.73;5.05;;;;;;;17.41;90.20;100008.91;5089619;28;20068;-75
2022/06/24 04:58:00;;;;;;;12.15;5.18;;;;;;;17.52;90.19;100017.06;5089763;28;20051;-73
2022/06/24 05:00:28;;;;;;;9.40;4.60;;;;;;;17.47;90.47;100011.97;5089482;28;20040;-73
2022/06/24 05:02:57;;;;;;;11.90;4.93;;;;;;;17.72;89.60;100012.69;5087941;28;20106;-74
2022/06/24 05:05:25;;;;;;;11.82;4.85;;;;;;;17.80;88.96;100014.78;5089156;28;20067;-74
2022/06/24 05:07:52;;;;;;;11.07;4.80;;;;;;;17.95;88.17;100013.47;5089095;28;20126;-74
2022/06/24 05:10:20;;;;;;;10.18;4.20;;;;;;;18.00;87.91;100015.81;5089648;28;20594;-74
2022/06/24 05:12:48;;;;;;;10.85;4.50;;;;;;;18.22;86.83;100020.34;5089567;28;20036;-74
2022/06/24 05:15:15;;;;;;;9.57;4.65;;;;;;;18.29;86.94;100023.41;5089354;28;20139;-74
2022/06/24 05:17:43;;;;;;;12.45;4.57;;;;;;;18.31;87.49;100026.88;5089760;28;20060;-74
2022/06/24 05:20:12;;;;;;;8.00;4.28;;;;;;;18.42;86.90;100025.09;5089301;28;20497;-76
2022/06/24 05:22:40;;;;;;;8.27;4.15;;;;;;;18.45;87.06;100022.94;5089459;28;20119;-74
2022/06/24 05:25:08;;;;;;;10.57;4.60;;;;;;;18.62;86.83;100023.38;5093113;28;20067;-74
2022/06/24 05:27:36;;;;;;;10.80;4.57;;;;;;;18.77;86.06;100023.88;5093019;28;20040;-75
2022/06/24 05:30:05;;;;;;;11.38;4.78;;;;;;;18.83;86.16;100032.41;5093112;28;20048;-75
2022/06/24 05:32:33;;;;;;;10.98;4.80;;;;;;;18.89;85.38;100036.47;5092641;28;20050;-75
2022/06/24 05:35:01;;;;;;;8.35;4.07;;;;;;;18.84;85.75;100036.03;5092962;28;20074;-75
2022/06/24 05:37:29;;;;;;;10.35;4.20;;;;;;;18.98;85.73;100029.34;5092972;28;20124;-76
2022/06/24 05:39:57;;;;;;;8.50;3.97;;;;;;;19.09;85.19;100029.25;5093043;28;20113;-75
2022/06/24 05:42:25;;;;;;;9.88;4.15;;;;;;;19.14;85.08;100030.72;5094379;28;20119;-74
2022/06/24 05:44:52;;;;;;;9.18;4.20;;;;;;;19.19;86.03;100032.06;5097048;28;20123;-75
2022/06/24 05:47:20;;;;;;;9.05;4.30;;;;;;;19.28;85.90;100029.47;5096612;28;20471;-75
2022/06/24 05:49:48;;;;;;;8.27;4.00;;;;;;;19.35;85.84;100031.50;5097070;28;20051;-76
2022/06/24 05:52:15;;;;;;;9.50;4.43;;;;;;;19.38;86.16;100030.38;5096792;28;20040;-75
2022/06/24 05:57:29;;;;;;;8.50;4.25;;;;;;;19.59;85.60;100033.03;5076469;28;20101;-75
2022/06/24 05:59:57;;;;;;;9.43;4.03;;;;;;;19.67;85.59;100030.44;5076374;28;20123;-74
2022/06/24 06:02:25;;;;;;;9.75;3.90;;;;;;;19.79;84.97;100030.34;5089484;28;20054;-75
2022/06/24 06:04:54;;;;;;;8.43;4.05;;;;;;;19.83;83.82;100029.03;5094998;28;20131;-72
2022/06/24 06:07:21;;;;;;;8.27;3.78;;;;;;;19.91;84.06;100033.81;5095163;28;20040;-73
2022/06/24 06:09:50;;;;;;;8.40;3.65;;;;;;;19.94;83.89;100028.94;5095071;28;20447;-72
2022/06/24 06:12:18;;;;;;;8.25;4.38;;;;;;;20.02;83.06;100032.84;5094896;28;20055;-73
2022/06/24 06:14:46;;;;;;;8.25;3.30;;;;;;;20.12;80.37;100022.72;5092585;28;20050;-73
2022/06/24 06:17:14;;;;;;;7.38;3.45;;;;;;;20.17;80.85;100022.31;5094508;28;20486;-73
2022/06/24 06:19:41;;;;;;;9.63;3.70;;;;;;;20.29;81.02;100029.38;5094954;28;20452;-72
2022/06/24 06:22:09;;;;;;;8.05;3.40;;;;;;;20.36;79.15;100021.44;5094769;28;20551;-73
2022/06/24 06:24:37;;;;;;;6.82;3.40;;;;;;;20.41;78.03;100022.75;5094875;28;20077;-73
2022/06/24 06:27:08;;;;;;;6.43;2.88;;;;;;;20.43;76.51;100016.25;5092271;28;20043;-73
2022/06/24 06:29:35;;;;;;;9.23;3.35;;;;;;;20.45;76.52;100026.03;5098725;28;20044;-73
2022/06/24 06:32:03;;;;;;;10.88;3.30;;;;;;;20.56;77.28;100022.28;5094379;28;20126;-72
2022/06/24 06:34:32;;;;;;;4.38;2.35;;;;;;;20.63;75.74;100022.56;5098688;28;20047;-72
2022/06/24 06:37:00;;;;;;;8.13;3.13;;;;;;;20.70;73.96;100018.22;5094481;28;20039;-72
2022/06/24 06:39:27;;;;;;;7.13;2.95;;;;;;;20.74;72.92;100019.63;5094470;28;20043;-73
2022/06/24 06:41:55;;;;;;;5.40;3.00;;;;;;;20.78;73.21;100018.31;5094339;28;20058;-73
2022/06/24 06:44:24;;;;;;;7.53;3.33;;;;;;;20.87;73.19;100012.97;5097903;28;20127;-73
2022/06/24 06:46:52;;;;;;;5.05;2.63;;;;;;;20.96;72.98;100026.69;5095046;28;20491;-73
2022/06/24 06:49:20;;;;;;;6.38;2.78;;;;;;;21.06;72.57;100012.94;5092475;28;20399;-73
2022/06/24 06:51:47;;;;;;;5.15;2.92;;;;;;;21.10;71.77;100014.34;5092106;28;20123;-73
2022/06/24 06:54:15;;;;;;;9.75;3.10;;;;;;;21.16;70.89;100012.00;5086649;28;20045;-73
2022/06/24 06:56:43;;;;;;;6.65;2.90;;;;;;;21.20;71.01;100010.69;5071870;28;20045;-72
2022/06/24 06:59:11;;;;;;;6.88;3.30;;;;;;;21.28;71.46;100003.44;5071599;28;20707;-72
2022/06/24 07:01:40;;;;;;;5.97;3.13;;;;;;;21.37;71.32;100001.63;5071253;28;20052;-72
2022/06/24 07:04:08;;;;;;;6.22;3.20;;;;;;;21.59;70.88;100010.47;5072279;28;20056;-72
2022/06/24 07:06:35;;;;;;;7.28;3.10;;;;;;;21.68;70.47;100006.84;5071328;28;20040;-76
2022/06/24 07:09:03;;;;;;;7.05;2.85;;;;;;;21.71;69.66;100003.78;5071639;28;20045;-76
2022/06/24 07:11:31;;;;;;;6.53;2.90;;;;;;;21.71;69.47;100002.94;5071497;28;20226;-76
2022/06/24 07:13:58;;;;;;;5.22;3.03;;;;;;;;;;5071266;28;20075;-74
2022/06/24 07:16:26;;;;;;;9.05;2.97;;;;;;;21.96;69.41;99995.78;5071300;28;20640;-75
2022/06/24 07:18:55;;;;;;;6.28;2.90;;;;;;;22.05;70.20;99998.63;5071022;28;20048;-74
2022/06/24 07:21:22;;;;;;;7.05;2.97;;;;;;;21.99;68.32;100000.97;5071477;28;20044;-74
2022/06/24 07:23:50;;;;;;;7.70;3.00;;;;;;;22.03;67.68;100000.66;5071384;28;20044;-74
2022/06/24 07:26:18;;;;;;;4.45;2.70;;;;;;;22.12;68.39;100005.19;5071171;28;20518;-74
2022/06/24 07:28:45;;;;;;;4.85;2.80;;;;;;;22.16;64.96;100014.88;5071020;28;20131;-75
2022/06/24 07:31:15;;;;;;;6.50;3.10;;;;;;;22.16;63.80;100012.13;5070805;28;20586;-75
2022/06/24 07:33:42;;;;;;;5.93;3.20;;;;;;;22.26;63.89;100003.78;5071039;28;20053;-75
2022/06/24 07:36:12;;;;;;;7.15;2.92;;;;;;;22.27;64.74;100000.00;5078397;28;20078;-74
2022/06/24 07:38:40;;;;;;;6.05;2.90;;;;;;;22.51;63.98;100002.13;5090141;28;20498;-72
2022/06/24 07:41:09;;;;;;;7.82;3.00;;;;;;;22.50;63.06;99994.88;5090452;28;20083;-76
2022/06/24 07:43:37;;;;;;;6.45;2.95;;;;;;;22.63;62.84;99994.47;5090818;28;20518;-75
2022/06/24 07:46:08;;;;;;;7.25;3.10;;;;;;;22.57;62.86;99992.38;5091215;28;20048;-75
2022/06/24 07:48:36;;;;;;;5.45;3.10;;;;;;;22.70;62.74;99997.44;5091806;28;20058;-75
2022/06/24 07:51:12;;;;;;;6.22;3.00;;;;;;;22.71;60.73;99993.69;5091022;28;20051;-76
2022/06/24 07:53:40;;;;;;;7.90;3.45;;;;;;;22.83;60.59;99995.13;5091739;28;20051;-76
2022/06/24 07:58:53;;;;;;;6.60;2.70;;;;;;;22.97;61.11;99984.50;5078084;28;20569;-77
2022/06/24 08:01:21;;;;;;;6.47;3.00;;;;;;;23.00;60.65;99990.56;5090745;28;20127;-77
2022/06/24 08:03:48;;;;;;;6.30;3.00;;;;;;;23.01;58.05;99984.03;5090177;28;20084;-77
2022/06/24 08:06:18;;;;;;;4.55;2.80;;;;;;;23.08;58.58;99978.75;5089914;28;20054;-77
2022/06/24 08:08:45;;;;;;;4.75;2.67;;;;;;;23.19;56.93;99984.97;5090426;28;20441;-77
2022/06/24 08:11:13;;;;;;;6.68;2.70;;;;;;;23.19;54.48;99979.47;5090570;28;20127;-75
2022/06/24 08:13:40;;;;;;;6.60;2.90;;;;;;;23.26;54.29;99981.44;5089981;28;20054;-76
2022/06/24 08:16:08;;;;;;;6.50;2.80;;;;;;;23.30;55.44;99976.44;5090111;28;20052;-77
2022/06/24 08:18:35;;;;;;;6.07;2.58;;;;;;;23.33;53.75;99976.09;5089681;28;20063;-75
2022/06/24 08:21:03;;;;;;;6.38;2.60;;;;;;;23.40;53.30;99976.31;5090340;28;20044;-74
2022/06/24 08:23:32;;;;;;;5.13;2.70;;;;;;;23.56;53.99;99975.50;5090145;28;20044;-75
2022/06/24 08:26:00;;;;;;;4.00;2.60;;;;;;;23.89;51.96;99978.31;5090002;28;20047;-75
2022/06/24 08:28:28;;;;;;;5.03;2.80;;;;;;;23.85;51.75;99969.53;5089551;28;20056;-75
2022/06/24 08:30:55;;;;;;;5.63;2.55;;;;;;;23.68;51.16;99967.78;5089637;28;20056;-75
2022/06/24 08:33:23;;;;;;;4.90;2.40;;;;;;;23.49;50.61;99969.78;5090291;28;20494;-75
2022/06/24 08:35:51;;;;;;;4.43;2.42;;;;;;;23.47;51.33;99971.00;5090093;28;20418;-74
2022/06/24 08:38:19;;;;;;;8.32;2.53;;;;;;;23.28;51.40;99968.34;5089977;28;20473;-75
2022/06/24 08:40:49;;;;;;;18.33;3.90;;;;;;;23.28;52.30;99961.97;5089383;28;20778;-73
2022/06/24 08:43:17;;;;;;;6.72;2.92;;;;;;;23.18;52.78;99964.81;5090666;28;20485;-74
2022/06/24 08:45:45;;;;;;;7.95;2.75;;;;;;;23.23;52.74;99964.34;5090026;28;20048;-73
2022/06/24 08:48:12;;;;;;;6.63;2.70;;;;;;;23.41;52.39;99965.09;5089933;28;20051;-74
2022/06/24 08:50:40;;;;;;;10.38;2.67;;;;;;;23.67;51.80;99964.16;5089861;28;20048;-73
2022/06/24 08:53:09;;;;;;;4.50;2.70;;;;;;;23.85;51.55;99963.13;5089498;28;20046;-74
2022/06/24 08:55:37;;;;;;;5.68;2.55;;;;;;;23.81;51.10;99964.50;5089478;28;20102;-74
2022/06/24 08:58:11;;;;;;;5.15;2.35;;;;;;;23.84;49.64;99962.28;5089780;28;20430;-74
2022/06/24 09:00:39;;;;;;;4.47;2.25;;;;;;;24.00;46.35;99949.53;5090460;28;20043;-74
2022/06/24 09:03:08;;;;;;;5.68;2.30;;;;;;;24.09;47.14;99951.31;5089622;28;20055;-77
2022/06/24 09:05:36;;;;;;;5.20;2.72;;;;;;;24.05;46.22;99952.66;5089102;28;20052;-73
2022/06/24 09:08:05;;;;;;;3.67;2.28;;;;;;;24.07;47.57;99953.38;5089220;28;20410;-73
2022/06/24 09:10:34;;;;;;;5.18;2.40;;;;;;;24.01;46.99;99949.41;5089325;28;20051;-73
2022/06/24 09:13:01;;;;;;;4.05;2.20;;;;;;;24.02;47.10;99955.75;5089816;28;20136;-73
2022/06/24 09:15:31;;;;;;;5.53;2.20;;;;;;;24.14;46.14;99959.06;5089714;28;20043;-75
2022/06/24 09:18:00;;;;;;;7.43;2.60;;;;;;;24.16;46.15;99937.66;5088513;28;20073;-75
2022/06/24 09:20:29;;;;;;;7.50;2.42;;;;;;;24.29;46.01;99949.06;5090986;28;20044;-75
2022/06/24 09:23:03;;;;;;;4.00;2.22;;;;;;;24.41;43.99;99941.25;5092297;28;20074;-74
2022/06/24 09:25:42;;;;;;;4.43;2.33;;;;;;;24.37;46.83;99944.56;5090756;28;20047;-75
2022/06/24 09:28:10;;;;;;;3.78;2.33;;;;;;;24.48;46.40;99946.09;5091646;28;20044;-75
2022/06/24 09:30:39;;;;;;;5.15;2.50;;;;;;;24.55;45.58;99942.47;5091476;28;20085;-74
2022/06/24 09:33:07;;;;;;;6.30;2.50;;;;;;;24.59;46.14;99941.06;5091557;28;20153;-75
2022/06/24 09:35:36;;;;;;;4.80;2.20;;;;;;;24.64;46.34;99942.44;5089220;28;20093;-75
2022/06/24 09:38:04;;;;;;;4.22;2.47;;;;;;;24.57;45.26;99937.63;5091418;28;20050;-75
2022/06/24 09:40:33;;;;;;;7.80;2.45;;;;;;;24.71;45.72;99935.19;5091190;28;20044;-75
2022/06/24 09:43:02;;;;;;;4.60;2.25;;;;;;;24.88;46.71;99936.88;5091345;28;20429;-74
2022/06/24 09:45:46;;;;;;;4.90;2.38;;;;;;;25.06;45.87;99938.53;5091284;28;20036;-75
2022/06/24 09:48:21;;;;;;;3.42;2.20;;;;;;;24.91;44.48;99930.16;5088703;28;20115;-76
2022/06/24 09:50:49;;;;;;;5.22;2.40;;;;;;;24.92;43.21;99937.41;5091414;28;20511;-75
2022/06/24 09:53:17;;;;;;;3.38;2.00;;;;;;;25.01;43.83;99927.16;5091353;28;20067;-75
2022/06/24 09:55:45;;;;;;;5.28;2.40;;;;;;;24.95;42.98;99934.28;5092793;28;20064;-74
2022/06/24 09:58:13;;;;;;;5.38;2.40;;;;;;;25.00;43.13;99925.44;5090922;28;20040;-74
2022/06/24 10:00:40;;;;;;;9.02;2.80;;;;;;;25.28;43.96;99922.22;5091270;28;20115;-75
2022/06/24 10:03:12;;;;;;;5.03;2.40;;;;;;;25.13;42.96;99920.22;5091282;28;20052;-75
2022/06/24 10:05:41;;;;;;;3.50;2.20;;;;;;;25.08;42.99;99925.41;5088937;28;20058;-74
2022/06/24 10:08:11;;;;;;;4.80;2.40;;;;;;;25.19;43.44;99926.91;5090715;28;20548;-74
2022/06/24 10:10:45;;;;;;;6.30;2.28;;;;;;;25.26;43.70;99918.78;5088879;28;20055;-75
2022/06/24 10:13:19;;;;;;;5.18;2.20;;;;;;;25.35;43.42;99922.34;5092352;28;20394;-74
2022/06/24 10:15:47;;;;;;;4.68;2.40;;;;;;;25.42;43.35;99907.59;5092871;28;20064;-74
2022/06/24 10:18:19;;;;;;;3.58;2.35;;;;;;;25.37;43.19;99906.44;5091143;28;20402;-75
2022/06/24 10:20:47;;;;;;;4.72;2.40;;;;;;;25.46;42.93;99910.91;5091550;28;20032;-75
2022/06/24 10:23:37;;;;;;;3.67;2.33;;;;;;;25.36;43.04;99897.28;5090564;28;20569;-74
2022/06/24 10:26:16;;;;;;;6.00;2.67;;;;;;;25.53;43.97;99902.75;5089446;28;20437;-74
2022/06/24 10:29:20;;;;;;;4.35;2.42;;;;;;;25.62;44.65;99898.00;5089970;28;20555;-74
2022/06/24 10:31:55;;;;;;;4.97;2.78;;;;;;;25.76;44.72;99897.22;5099959;28;20074;-75
2022/06/24 10:34:33;;;;;;;5.70;2.40;;;;;;;25.70;42.65;99893.28;5096927;28;20502;-73
2022/06/24 10:37:05;;;;;;;4.55;2.42;;;;;;;25.69;42.37;99894.34;5096169;28;20410;-72
2022/06/24 10:39:34;;;;;;;5.13;2.33;;;;;;;25.71;42.57;99888.63;5097926;28;20119;-73
2022/06/24 10:42:02;;;;;;;5.40;2.40;;;;;;;25.80;41.95;99881.13;5095574;28;20123;-73
2022/06/24 10:44:32;;;;;;;4.35;2.50;;;;;;;25.78;41.56;99881.31;5095517;28;20048;-72
2022/06/24 10:47:26;;;;;;;4.10;2.40;;;;;;;25.91;41.91;99874.28;5095729;28;20425;-73
2022/06/24 10:50:06;;;;;;;5.70;2.60;;;;;;;25.90;41.32;99870.66;5095604;28;20044;-73
2022/06/24 10:52:34;;;;;;;7.72;2.63;;;;;;;26.05;41.79;99873.47;5096413;28;20048;-73
2022/06/24 10:55:32;;;;;;;4.78;2.38;;;;;;;26.18;42.36;99875.63;5095464;28;20048;-73
2022/06/24 10:58:01;;;;;;;4.47;2.40;;;;;;;26.18;42.20;99875.63;5095395;28;20414;-73
2022/06/24 11:00:30;;;;;;;7.50;2.40;;;;;;;26.04;41.92;99880.91;5095561;28;20131;-73
2022/06/24 11:03:14;;;;;;;5.07;2.50;;;;;;;26.17;41.60;99872.00;5095305;28;20082;-73
2022/06/24 11:05:45;;;;;;;5.65;2.20;;;;;;;26.02;40.47;99869.19;5096998;28;20040;-73
2022/06/24 11:08:13;;;;;;;4.65;2.40;;;;;;;25.98;40.58;99870.59;5095443;28;20051;-73
2022/06/24 11:10:42;;;;;;;6.00;2.38;;;;;;;26.01;40.51;99859.16;5095226;28;20096;-72
2022/06/24 11:13:10;;;;;;;4.68;2.30;;;;;;;26.04;40.50;99860.66;5095307;28;20048;-73
2022/06/24 11:15:39;;;;;;;7.18;2.58;;;;;;;26.18;40.82;99859.00;5095281;28;20487;-73
2022/06/24 11:18:08;;;;;;;4.07;2.30;;;;;;;25.71;39.81;99852.69;5095198;28;20052;-73
2022/06/24 11:20:37;;;;;;;5.40;2.50;;;;;;;26.02;40.19;99844.28;5094716;28;20048;-73
2022/06/24 11:47:47;;;;;;;4.93;2.60;;;;;;;26.00;40.42;99828.91;5049004;27;1855627;-73
2022/06/24 11:50:19;;;;;;;5.83;2.70;;;;;;;26.23;41.57;99837.16;5089236;28;20423;-73
2022/06/24 11:52:47;;;;;;;5.90;2.53;;;;;;;26.36;41.31;99830.13;5090122;28;20071;-73
2022/06/24 11:55:33;;;;;;;8.98;2.67;;;;;;;26.14;39.68;99829.97;5090289;28;20044;-73
2022/06/24 11:58:03;;;;;;;5.22;2.47;;;;;;;26.20;40.44;99822.88;5090631;28;20044;-73
2022/06/24 12:00:33;;;;;;;7.05;2.50;;;;;;;26.26;40.30;99822.94;5090428;28;20479;-73
2022/06/24 12:03:03;;;;;;;5.03;2.35;;;;;;;26.24;40.40;99813.97;5091273;28;20108;-73
2022/06/24 12:05:32;;;;;;;5.47;2.53;;;;;;;26.44;40.79;99814.25;5090175;28;20058;-73
2022/06/24 12:08:01;;;;;;;4.25;2.38;;;;;;;26.61;40.40;99812.16;5089810;28;20445;-73
2022/06/24 12:10:29;;;;;;;6.32;2.40;;;;;;;26.60;40.69;99813.22;5090144;28;20044;-73